createdAt,value
2023-03-14T00:01:21.111Z,11.60
2023-03-14T00:03:47.884Z,11.70
2023-03-14T00:06:15.301Z,11.70
2023-03-14T00:08:43.350Z,11.80
2023-03-14T00:11:13.051Z,11.80
2023-03-14T00:13:39.934Z,12.20
2023-03-14T00:16:08.956Z,11.90
2023-03-14T00:18:35.843Z,11.90
2023-03-14T00:21:03.886Z,11.90
2023-03-14T00:23:31.778Z,11.90
2023-03-14T00:26:06.972Z,11.90
2023-03-14T00:28:33.745Z,11.80
2023-03-14T00:31:02.743Z,11.90
2023-03-14T00:33:29.521Z,11.90
2023-03-14T00:36:00.065Z,11.90
2023-03-14T00:38:31.400Z,12.00
2023-03-14T00:40:58.806Z,11.90
2023-03-14T00:43:26.687Z,11.90
2023-03-14T00:45:55.034Z,11.90
2023-03-14T00:48:21.971Z,11.90
2023-03-14T00:50:49.174Z,12.00
2023-03-14T00:53:16.330Z,12.00
2023-03-14T00:55:44.335Z,12.00
2023-03-14T00:58:13.525Z,12.00
2023-03-14T01:00:41.249Z,12.00
2023-03-14T01:03:08.790Z,12.00
2023-03-14T01:05:36.072Z,12.00
2023-03-14T01:08:03.430Z,12.00
2023-03-14T01:10:30.499Z,12.00
2023-03-14T01:12:58.634Z,12.00
2023-03-14T01:15:25.595Z,12.00
2023-03-14T01:17:52.618Z,11.90
2023-03-14T01:20:19.377Z,11.90
2023-03-14T01:22:46.168Z,11.90
2023-03-14T01:25:15.771Z,11.80
2023-03-14T01:27:43.321Z,11.80
2023-03-14T01:30:12.396Z,11.70
2023-03-14T01:32:40.713Z,11.70
2023-03-14T01:35:08.104Z,11.70
2023-03-14T01:37:35.647Z,11.60
2023-03-14T01:40:06.265Z,11.60
2023-03-14T01:42:33.150Z,11.60
2023-03-14T01:45:04.192Z,11.60
2023-03-14T01:47:30.949Z,11.50
2023-03-14T01:50:02.922Z,11.50
2023-03-14T01:52:37.495Z,11.50
2023-03-14T01:55:07.445Z,11.50
2023-03-14T01:57:46.033Z,11.50
2023-03-14T02:00:16.076Z,11.50
2023-03-14T02:02:46.881Z,11.50
2023-03-14T02:05:19.640Z,11.50
2023-03-14T02:07:56.440Z,11.50
2023-03-14T02:10:37.996Z,11.30
2023-03-14T02:13:06.690Z,11.30
2023-03-14T02:15:44.824Z,11.20
2023-03-14T02:18:18.594Z,11.40
2023-03-14T02:21:39.108Z,11.20
2023-03-14T02:24:15.291Z,11.30
2023-03-14T02:27:03.561Z,11.30
2023-03-14T02:29:34.187Z,11.40
2023-03-14T02:32:03.514Z,11.40
2023-03-14T02:34:32.577Z,11.50
2023-03-14T02:37:00.751Z,11.50
2023-03-14T02:39:38.904Z,11.50
2023-03-14T02:42:06.530Z,11.50
2023-03-14T02:44:33.462Z,11.50
2023-03-14T02:47:00.676Z,11.40
2023-03-14T02:49:30.955Z,11.50
2023-03-14T02:51:57.990Z,11.60
2023-03-14T02:54:25.153Z,11.50
2023-03-14T02:56:52.226Z,11.60
2023-03-14T02:59:19.037Z,11.50
2023-03-14T03:01:50.292Z,11.50
2023-03-14T03:04:17.045Z,11.50
2023-03-14T03:06:46.424Z,11.40
2023-03-14T03:09:14.304Z,11.30
2023-03-14T03:11:41.173Z,11.40
2023-03-14T03:14:10.092Z,11.40
2023-03-14T03:16:37.011Z,11.40
2023-03-14T03:19:04.103Z,11.40
2023-03-14T03:21:30.748Z,11.40
2023-03-14T03:23:57.467Z,11.40
2023-03-14T03:26:24.239Z,11.40
2023-03-14T03:28:53.821Z,11.50
2023-03-14T03:31:22.054Z,11.50
2023-03-14T03:33:48.846Z,11.40
2023-03-14T03:36:23.546Z,11.50
2023-03-14T03:38:50.673Z,11.50
2023-03-14T03:41:17.614Z,11.50
2023-03-14T03:43:44.595Z,11.50
2023-03-14T03:46:14.929Z,11.40
2023-03-14T03:48:41.827Z,11.40
2023-03-14T03:51:11.701Z,11.30
2023-03-14T03:53:38.471Z,11.30
2023-03-14T03:56:10.220Z,11.30
2023-03-14T03:58:39.628Z,11.30
2023-03-14T04:01:07.798Z,11.20
2023-03-14T04:03:35.191Z,11.20
2023-03-14T04:06:11.649Z,11.30
2023-03-14T04:08:40.278Z,11.10
2023-03-14T04:11:08.380Z,11.10
2023-03-14T04:13:49.098Z,11.10
2023-03-14T04:16:20.091Z,11.10
2023-03-14T04:18:47.567Z,11.10
2023-03-14T04:21:15.131Z,11.10
2023-03-14T04:23:46.875Z,11.10
2023-03-14T04:26:15.012Z,11.10
2023-03-14T04:28:43.114Z,11.10
2023-03-14T04:31:12.951Z,11.10
2023-03-14T04:33:41.024Z,11.10
2023-03-14T04:36:09.108Z,11.10
2023-03-14T04:38:36.747Z,11.10
2023-03-14T04:41:03.869Z,11.10
2023-03-14T04:43:33.304Z,11.10
2023-03-14T04:46:05.962Z,11.10
2023-03-14T04:48:33.028Z,11.10
2023-03-14T04:51:01.059Z,11.10
2023-03-14T04:53:33.037Z,11.10
2023-03-14T04:56:01.174Z,11.10
2023-03-14T04:58:34.656Z,11.10
2023-03-14T05:01:06.030Z,11.10
2023-03-14T05:03:55.413Z,11.10
2023-03-14T05:06:40.742Z,11.10
2023-03-14T05:09:34.553Z,11.10
2023-03-14T05:12:21.982Z,11.10
2023-03-14T05:14:57.282Z,11.10
2023-03-14T05:17:57.347Z,11.10
2023-03-14T05:20:41.507Z,11.10
2023-03-14T05:23:29.050Z,11.10
2023-03-14T05:26:10.390Z,11.10
2023-03-14T05:28:44.793Z,11.10
2023-03-14T05:31:34.734Z,11.10
2023-03-14T05:34:22.639Z,11.10
2023-03-14T05:37:25.965Z,11.10
2023-03-14T05:40:12.056Z,11.10
2023-03-14T05:42:47.172Z,11.10
2023-03-14T05:45:30.933Z,11.30
2023-03-14T05:48:11.279Z,11.20
2023-03-14T05:50:45.485Z,11.20
2023-03-14T05:53:12.283Z,11.10
2023-03-14T05:55:55.870Z,11.10
2023-03-14T05:58:46.807Z,11.10
2023-03-14T06:01:28.754Z,11.10
2023-03-14T06:04:10.467Z,11.10
2023-03-14T06:06:37.439Z,11.10
2023-03-14T06:09:04.387Z,11.10
2023-03-14T06:11:33.822Z,11.10
2023-03-14T06:14:00.797Z,11.00
2023-03-14T06:16:27.681Z,11.10
2023-03-14T06:18:54.758Z,11.10
2023-03-14T06:21:23.466Z,11.10
2023-03-14T06:23:50.262Z,11.10
2023-03-14T06:26:17.889Z,11.10
2023-03-14T06:28:44.761Z,11.30
2023-03-14T06:31:11.828Z,11.10
2023-03-14T06:33:48.670Z,11.20
2023-03-14T06:36:15.897Z,10.70
2023-03-14T06:38:44.655Z,10.30
2023-03-14T06:41:11.459Z,10.00
2023-03-14T06:43:41.925Z,9.70
2023-03-14T06:46:09.720Z,9.50
2023-03-14T06:48:39.218Z,9.30
2023-03-14T06:51:07.652Z,9.20
2023-03-14T06:53:34.984Z,9.10
2023-03-14T06:56:03.314Z,9.10
2023-03-14T06:58:32.456Z,9.00
2023-03-14T07:01:00.580Z,8.90
2023-03-14T07:03:32.711Z,8.90
2023-03-14T07:06:00.774Z,8.80
2023-03-14T07:08:27.665Z,8.70
2023-03-14T07:10:57.941Z,8.70
2023-03-14T07:13:25.249Z,8.60
2023-03-14T07:16:01.040Z,8.50
2023-03-14T07:18:28.317Z,8.50
2023-03-14T07:20:56.065Z,8.40
2023-03-14T07:23:22.870Z,8.40
2023-03-14T07:25:54.502Z,8.50
2023-03-14T07:28:23.969Z,8.40
2023-03-14T07:30:56.749Z,8.40
2023-03-14T07:33:28.731Z,8.30
2023-03-14T07:35:55.529Z,8.30
2023-03-14T07:38:23.012Z,8.30
2023-03-14T07:41:10.744Z,8.40
2023-03-14T07:43:43.842Z,8.30
2023-03-14T07:46:10.753Z,8.30
2023-03-14T07:48:37.602Z,8.30
2023-03-14T07:51:04.820Z,8.40
2023-03-14T07:53:31.606Z,8.30
2023-03-14T07:55:58.518Z,8.30
2023-03-14T07:58:25.225Z,8.40
2023-03-14T08:00:53.534Z,8.40
2023-03-14T08:03:20.329Z,8.40
2023-03-14T08:05:51.308Z,8.40
2023-03-14T08:08:18.960Z,8.50
2023-03-14T08:10:47.177Z,8.50
2023-03-14T08:13:14.309Z,8.70
2023-03-14T08:15:41.203Z,8.80
2023-03-14T08:18:08.183Z,8.80
2023-03-14T08:20:36.490Z,8.80
2023-03-14T08:23:03.206Z,8.80
2023-03-14T08:25:30.589Z,8.80
2023-03-14T08:27:57.645Z,8.90
2023-03-14T08:30:25.348Z,8.90
2023-03-14T08:32:52.379Z,9.00
2023-03-14T08:35:19.850Z,9.10
2023-03-14T08:37:46.735Z,9.00
2023-03-14T08:40:14.156Z,8.90
2023-03-14T08:42:41.079Z,8.90
2023-03-14T08:45:08.919Z,8.90
2023-03-14T08:47:35.768Z,8.80
2023-03-14T08:50:03.307Z,8.90
2023-03-14T08:52:31.647Z,9.00
2023-03-14T08:54:58.903Z,9.10
2023-03-14T08:57:28.395Z,9.10
2023-03-14T08:59:56.550Z,9.00
2023-03-14T09:02:24.523Z,8.90
2023-03-14T09:04:52.137Z,8.70
2023-03-14T09:07:20.219Z,8.70
2023-03-14T09:09:47.092Z,8.70
2023-03-14T09:12:14.080Z,8.80
2023-03-14T09:14:40.950Z,8.70
2023-03-14T09:17:08.631Z,8.70
2023-03-14T09:19:35.752Z,8.80
2023-03-14T09:22:02.515Z,8.90
2023-03-14T09:24:29.412Z,9.00
2023-03-14T09:26:57.483Z,8.90
2023-03-14T09:29:25.323Z,8.90
2023-03-14T09:31:52.065Z,9.00
2023-03-14T09:34:19.719Z,9.00
2023-03-14T09:36:46.549Z,8.90
2023-03-14T09:39:13.443Z,8.90
2023-03-14T09:41:44.078Z,8.80
2023-03-14T09:44:25.408Z,8.70
2023-03-14T09:46:55.310Z,8.60
2023-03-14T09:49:26.996Z,8.60
2023-03-14T09:51:57.455Z,8.50
2023-03-14T09:55:06.891Z,8.40
2023-03-14T09:57:36.447Z,8.30
2023-03-14T10:00:14.963Z,8.30
2023-03-14T10:02:47.321Z,8.40
2023-03-14T10:05:20.089Z,8.60
2023-03-14T10:07:47.298Z,8.90
2023-03-14T10:10:22.067Z,9.10
2023-03-14T10:12:57.685Z,9.20
2023-03-14T10:15:33.724Z,9.20
2023-03-14T10:18:04.883Z,9.20
2023-03-14T10:20:36.948Z,9.30
2023-03-14T10:23:14.251Z,9.40
2023-03-14T10:25:45.940Z,9.50
2023-03-14T10:28:26.431Z,9.40
2023-03-14T10:30:53.297Z,9.00
2023-03-14T10:33:23.262Z,8.90
2023-03-14T10:36:05.399Z,8.90
2023-03-14T10:38:34.778Z,9.10
2023-03-14T10:41:02.776Z,9.30
2023-03-14T10:43:35.754Z,9.40
2023-03-14T10:46:20.323Z,9.60
2023-03-14T10:49:09.385Z,9.70
2023-03-14T10:51:36.130Z,9.80
2023-03-14T10:54:31.385Z,9.90
2023-03-14T10:57:05.177Z,9.90
2023-03-14T10:59:37.646Z,10.00
2023-03-14T11:02:33.515Z,9.90
2023-03-14T11:05:25.257Z,9.80
2023-03-14T11:07:56.350Z,9.60
2023-03-14T11:10:34.617Z,9.60
2023-03-14T11:13:19.630Z,9.60
2023-03-14T11:15:49.529Z,9.60
2023-03-14T11:18:43.846Z,9.80
2023-03-14T11:21:30.251Z,9.90
2023-03-14T11:24:11.510Z,10.00
2023-03-14T11:27:08.267Z,9.70
2023-03-14T11:29:46.349Z,9.20
2023-03-14T11:32:57.245Z,8.60
2023-03-14T11:35:35.712Z,8.00
2023-03-14T11:38:14.852Z,7.60
2023-03-14T11:40:43.384Z,7.50
2023-03-14T11:43:20.830Z,7.40
2023-03-14T11:45:51.068Z,7.50
2023-03-14T11:48:34.839Z,7.70
2023-03-14T11:51:06.136Z,7.90
2023-03-14T11:54:11.652Z,8.00
2023-03-14T11:56:47.688Z,8.10
2023-03-14T11:59:25.711Z,8.40
2023-03-14T12:02:06.766Z,8.80
2023-03-14T12:04:53.461Z,9.30
2023-03-14T12:07:36.115Z,9.60
2023-03-14T12:10:03.527Z,9.70
2023-03-14T12:12:32.038Z,9.80
2023-03-14T12:15:02.180Z,10.00
2023-03-14T12:17:38.305Z,10.10
2023-03-14T12:20:23.325Z,10.00
2023-03-14T12:23:03.282Z,9.60
2023-03-14T12:25:33.675Z,9.40
2023-03-14T12:28:11.204Z,9.10
2023-03-14T12:30:40.379Z,8.30
2023-03-14T12:33:10.068Z,7.90
2023-03-14T12:35:46.834Z,7.80
2023-03-14T12:38:22.774Z,7.90
2023-03-14T12:41:03.944Z,8.20
2023-03-14T12:43:34.147Z,8.60
2023-03-14T12:46:17.352Z,8.80
2023-03-14T12:49:02.324Z,9.10
2023-03-14T12:51:40.356Z,9.30
2023-03-14T12:54:15.993Z,9.30
2023-03-14T12:57:21.775Z,9.20
2023-03-14T12:59:59.882Z,9.10
2023-03-14T13:02:42.599Z,9.00
2023-03-14T13:05:26.576Z,9.00
2023-03-14T13:07:56.232Z,9.00
2023-03-14T13:10:37.141Z,9.10
2023-03-14T13:13:26.587Z,9.10
2023-03-14T13:16:04.613Z,9.10
2023-03-14T13:18:40.943Z,9.20
2023-03-14T13:21:21.141Z,9.10
2023-03-14T13:23:59.437Z,9.10
2023-03-14T13:26:43.243Z,9.00
2023-03-14T13:29:18.523Z,9.10
2023-03-14T13:31:47.030Z,9.10
2023-03-14T13:34:14.296Z,9.20
2023-03-14T13:36:41.170Z,9.30
2023-03-14T13:39:14.409Z,9.40
2023-03-14T13:41:42.736Z,9.40
2023-03-14T13:44:20.333Z,9.50
2023-03-14T13:46:47.221Z,9.60
2023-03-14T13:49:24.758Z,9.80
2023-03-14T13:51:51.587Z,10.00
2023-03-14T13:54:20.490Z,10.20
2023-03-14T13:56:48.457Z,10.30
2023-03-14T13:59:26.245Z,10.20
2023-03-14T14:01:55.865Z,10.00
2023-03-14T14:04:26.291Z,9.70
2023-03-14T14:06:58.484Z,9.50
2023-03-14T14:09:39.260Z,9.40
2023-03-14T14:12:17.648Z,9.10
2023-03-14T14:15:01.641Z,8.90
2023-03-14T14:17:53.052Z,8.70
2023-03-14T14:20:22.760Z,8.70
2023-03-14T14:22:51.290Z,8.70
2023-03-14T14:25:18.717Z,8.80
2023-03-14T14:27:50.055Z,8.80
2023-03-14T14:30:19.900Z,8.70
2023-03-14T14:32:51.657Z,8.60
2023-03-14T14:35:33.160Z,8.50
2023-03-14T14:38:00.461Z,8.40
2023-03-14T14:40:32.029Z,8.60
2023-03-14T14:43:06.233Z,8.90
2023-03-14T14:45:35.500Z,9.10
2023-03-14T14:48:02.172Z,9.30
2023-03-14T14:50:29.277Z,9.30
2023-03-14T14:53:01.098Z,9.20
2023-03-14T14:55:34.497Z,9.00
2023-03-14T14:58:33.336Z,8.80
2023-03-14T15:01:12.711Z,8.60
2023-03-14T15:03:39.641Z,8.60
2023-03-14T15:06:06.399Z,8.50
2023-03-14T15:08:33.121Z,8.40
2023-03-14T15:11:00.156Z,8.30
2023-03-14T15:13:27.115Z,8.20
2023-03-14T15:15:57.362Z,8.20
2023-03-14T15:18:26.504Z,8.20
2023-03-14T15:20:53.825Z,8.10
2023-03-14T15:23:22.447Z,8.20
2023-03-14T15:25:57.244Z,8.20
2023-03-14T15:28:29.973Z,8.20
2023-03-14T15:30:59.286Z,8.20
2023-03-14T15:33:27.170Z,8.30
2023-03-14T15:35:54.285Z,8.30
2023-03-14T15:38:23.761Z,8.20
2023-03-14T15:40:52.015Z,8.10
2023-03-14T15:43:19.637Z,8.10
2023-03-14T15:45:47.011Z,8.00
2023-03-14T15:48:17.388Z,8.00
2023-03-14T15:50:44.790Z,8.00
2023-03-14T15:53:12.375Z,7.90
2023-03-14T15:55:39.142Z,7.90
2023-03-14T15:58:06.146Z,7.90
2023-03-14T16:00:33.265Z,7.90
2023-03-14T16:03:00.057Z,7.90
2023-03-14T16:05:27.309Z,7.90
2023-03-14T16:07:54.039Z,7.90
2023-03-14T16:10:20.921Z,7.90
2023-03-14T16:12:47.660Z,8.00
2023-03-14T16:15:14.368Z,7.90
2023-03-14T16:17:43.493Z,7.80
2023-03-14T16:20:11.282Z,7.80
2023-03-14T16:22:38.983Z,7.70
2023-03-14T16:25:08.215Z,7.70
2023-03-14T16:27:34.956Z,7.80
2023-03-14T16:30:01.770Z,7.70
2023-03-14T16:32:28.882Z,7.70
2023-03-14T16:34:56.880Z,7.70
2023-03-14T16:37:24.848Z,7.70
2023-03-14T16:40:10.983Z,7.70
2023-03-14T16:42:46.850Z,7.80
2023-03-14T16:45:22.026Z,7.80
2023-03-14T16:47:50.349Z,7.80
2023-03-14T16:50:17.327Z,7.80
2023-03-14T16:52:46.940Z,7.70
2023-03-14T16:55:13.703Z,7.80
2023-03-14T16:57:40.463Z,7.60
2023-03-14T17:00:09.600Z,7.60
2023-03-14T17:02:38.390Z,7.60
2023-03-14T17:05:05.631Z,7.70
2023-03-14T17:07:32.494Z,7.70
2023-03-14T17:09:59.353Z,7.80
2023-03-14T17:12:26.087Z,7.60
2023-03-14T17:14:53.162Z,7.50
2023-03-14T17:17:19.896Z,7.50
2023-03-14T17:19:46.778Z,7.60
2023-03-14T17:22:23.289Z,7.70
2023-03-14T17:24:50.937Z,7.70
2023-03-14T17:27:20.148Z,7.70
2023-03-14T17:29:48.714Z,7.70
2023-03-14T17:32:16.773Z,7.60
2023-03-14T17:34:44.014Z,7.50
2023-03-14T17:37:10.819Z,7.40
2023-03-14T17:39:41.692Z,7.30
2023-03-14T17:42:11.353Z,7.20
2023-03-14T17:44:39.056Z,7.20
2023-03-14T17:47:05.957Z,7.10
2023-03-14T17:49:32.873Z,7.10
2023-03-14T17:52:00.837Z,7.10
2023-03-14T17:54:27.827Z,7.10
2023-03-14T17:56:56.216Z,7.00
2023-03-14T17:59:23.451Z,7.00
2023-03-14T18:01:50.372Z,7.00
2023-03-14T18:04:17.249Z,7.00
2023-03-14T18:06:44.601Z,7.20
2023-03-14T18:09:11.516Z,7.00
2023-03-14T18:11:38.417Z,6.90
2023-03-14T18:14:07.641Z,6.90
2023-03-14T18:16:37.506Z,6.90
2023-03-14T18:19:04.348Z,6.80
2023-03-14T18:21:31.144Z,6.70
2023-03-14T18:23:58.151Z,6.70
2023-03-14T18:26:25.677Z,6.70
2023-03-14T18:28:52.548Z,6.80
2023-03-14T18:31:22.367Z,6.80
2023-03-14T18:33:51.960Z,6.80
2023-03-14T18:36:19.203Z,6.80
2023-03-14T18:38:47.712Z,6.80
2023-03-14T18:41:16.856Z,6.80
2023-03-14T18:43:43.976Z,6.70
2023-03-14T18:46:11.680Z,6.70
2023-03-14T18:48:45.162Z,6.60
2023-03-14T18:51:17.094Z,6.50
2023-03-14T18:53:45.538Z,6.40
2023-03-14T18:56:14.033Z,6.30
2023-03-14T18:58:42.085Z,6.30
2023-03-14T19:01:10.365Z,6.10
2023-03-14T19:03:39.816Z,6.00
2023-03-14T19:06:08.282Z,5.90
2023-03-14T19:08:36.681Z,5.90
2023-03-14T19:11:06.262Z,5.80
2023-03-14T19:13:34.714Z,5.70
2023-03-14T19:16:02.558Z,5.70
2023-03-14T19:18:29.558Z,5.70
2023-03-14T19:20:58.720Z,5.60
2023-03-14T19:23:25.940Z,5.60
2023-03-14T19:25:53.359Z,5.60
2023-03-14T19:28:20.928Z,5.60
2023-03-14T19:30:48.591Z,5.50
2023-03-14T19:33:16.566Z,5.50
2023-03-14T19:35:43.789Z,5.60
2023-03-14T19:38:10.961Z,5.50
2023-03-14T19:40:39.325Z,5.50
2023-03-14T19:43:06.954Z,5.50
2023-03-14T19:45:36.660Z,5.50
2023-03-14T19:48:09.136Z,5.40
2023-03-14T19:50:35.981Z,5.40
2023-03-14T19:53:04.670Z,5.40
2023-03-14T19:55:34.609Z,5.40
2023-03-14T19:58:01.729Z,5.40
2023-03-14T20:00:28.492Z,5.40
2023-03-14T20:02:55.522Z,5.40
2023-03-14T20:05:24.160Z,5.40
2023-03-14T20:07:51.663Z,5.40
2023-03-14T20:10:22.633Z,5.30
2023-03-14T20:12:50.838Z,5.30
2023-03-14T20:15:19.418Z,5.30
2023-03-14T20:17:51.134Z,5.30
2023-03-14T20:20:19.210Z,5.30
2023-03-14T20:22:46.344Z,5.30
2023-03-14T20:25:16.505Z,5.30
2023-03-14T20:27:43.430Z,5.40
2023-03-14T20:30:12.903Z,5.40
2023-03-14T20:32:41.664Z,5.40
2023-03-14T20:35:11.342Z,5.50
2023-03-14T20:37:39.317Z,5.60
2023-03-14T20:40:11.219Z,5.70
2023-03-14T20:42:39.113Z,5.60
2023-03-14T20:45:07.022Z,5.60
2023-03-14T20:47:36.846Z,5.60
2023-03-14T20:50:04.767Z,5.50
2023-03-14T20:52:31.877Z,5.50
2023-03-14T20:54:59.794Z,5.50
2023-03-14T20:57:27.043Z,5.40
2023-03-14T20:59:53.915Z,5.40
2023-03-14T21:02:20.777Z,5.40
2023-03-14T21:04:47.629Z,5.30
2023-03-14T21:07:15.000Z,5.30
2023-03-14T21:09:41.768Z,5.30
2023-03-14T21:12:08.491Z,5.30
2023-03-14T21:14:35.206Z,5.40
2023-03-14T21:17:02.049Z,5.40
2023-03-14T21:19:31.889Z,5.50
2023-03-14T21:21:59.874Z,5.60
2023-03-14T21:24:27.064Z,5.60
2023-03-14T21:26:53.947Z,5.60
2023-03-14T21:29:21.723Z,5.70
2023-03-14T21:31:49.508Z,5.70
2023-03-14T21:34:17.058Z,5.70
2023-03-14T21:36:43.888Z,5.60
2023-03-14T21:39:10.793Z,5.60
2023-03-14T21:41:37.562Z,5.50
2023-03-14T21:44:04.338Z,5.50
2023-03-14T21:46:31.161Z,5.50
2023-03-14T21:48:57.897Z,5.60
2023-03-14T21:51:29.881Z,5.60
2023-03-14T21:53:56.939Z,5.70
2023-03-14T21:56:26.838Z,5.80
2023-03-14T21:58:55.743Z,5.80
2023-03-14T22:01:23.217Z,5.90
2023-03-14T22:03:50.068Z,5.90
2023-03-14T22:06:16.787Z,6.00
2023-03-14T22:08:43.637Z,6.00
2023-03-14T22:11:10.427Z,6.00
2023-03-14T22:13:37.805Z,5.90
2023-03-14T22:16:05.033Z,5.90
2023-03-14T22:18:32.192Z,6.00
2023-03-14T22:20:59.186Z,5.90
2023-03-14T22:23:26.004Z,5.90
2023-03-14T22:25:52.903Z,5.90
2023-03-14T22:28:19.707Z,6.00
2023-03-14T22:30:48.224Z,5.90
2023-03-14T22:33:16.128Z,5.90
2023-03-14T22:35:42.896Z,5.90
2023-03-14T22:38:09.643Z,5.90
2023-03-14T22:40:38.364Z,5.90
2023-03-14T22:43:05.227Z,6.00
2023-03-14T22:45:32.872Z,6.00
2023-03-14T22:48:00.675Z,6.00
2023-03-14T22:50:27.807Z,6.10
2023-03-14T22:52:54.866Z,6.10
2023-03-14T22:55:21.664Z,6.00
2023-03-14T22:57:55.205Z,5.90
2023-03-14T23:00:22.225Z,5.90
2023-03-14T23:02:49.215Z,5.70
2023-03-14T23:05:17.212Z,5.60
2023-03-14T23:07:43.943Z,5.50
2023-03-14T23:10:11.476Z,5.30
2023-03-14T23:12:38.162Z,5.30
2023-03-14T23:15:07.192Z,5.20
2023-03-14T23:17:34.476Z,5.20
2023-03-14T23:20:01.441Z,5.20
2023-03-14T23:22:28.921Z,5.20
2023-03-14T23:24:55.820Z,5.20
2023-03-14T23:27:22.598Z,5.10
2023-03-14T23:29:49.408Z,5.00
2023-03-14T23:32:16.270Z,4.90
2023-03-14T23:34:43.682Z,4.80
2023-03-14T23:37:14.506Z,4.70
2023-03-14T23:39:44.492Z,4.60
2023-03-14T23:42:11.589Z,4.40
2023-03-14T23:44:39.181Z,4.40
2023-03-14T23:47:06.192Z,4.40
2023-03-14T23:49:32.984Z,4.40
2023-03-14T23:51:59.764Z,4.40
2023-03-14T23:54:27.491Z,4.50
2023-03-14T23:56:54.346Z,4.50
2023-03-14T23:59:21.009Z,4.60
